sensor_id;sensor_type;location;lat;lon;timestamp;temperature;humidity
24252;DHT22;12380;51.118;4.176;2023-07-31T00:02:15;16.80;99.90
24252;DHT22;12380;51.118;4.176;2023-07-31T00:04:40;16.80;99.90
24252;DHT22;12380;51.118;4.176;2023-07-31T00:07:08;16.90;99.90
24252;DHT22;12380;51.118;4.176;2023-07-31T00:09:34;16.90;99.90
24252;DHT22;12380;51.118;4.176;2023-07-31T00:12:00;16.70;99.90
24252;DHT22;12380;51.118;4.176;2023-07-31T00:14:25;16.70;99.90
24252;DHT22;12380;51.118;4.176;2023-07-31T00:16:51;16.70;99.90
24252;DHT22;12380;51.118;4.176;2023-07-31T00:19:16;16.80;99.90
24252;DHT22;12380;51.118;4.176;2023-07-31T00:21:42;16.90;99.90
24252;DHT22;12380;51.118;4.176;2023-07-31T00:24:08;16.90;99.90
24252;DHT22;12380;51.118;4.176;2023-07-31T00:26:33;16.80;99.90
24252;DHT22;12380;51.118;4.176;2023-07-31T00:28:59;16.80;99.90
24252;DHT22;12380;51.118;4.176;2023-07-31T00:31:24;16.70;99.90
24252;DHT22;12380;51.118;4.176;2023-07-31T00:33:52;16.80;99.90
24252;DHT22;12380;51.118;4.176;2023-07-31T00:36:17;16.70;99.90
24252;DHT22;12380;51.118;4.176;2023-07-31T00:38:43;16.80;99.90
24252;DHT22;12380;51.118;4.176;2023-07-31T00:41:09;16.80;99.90
24252;DHT22;12380;51.118;4.176;2023-07-31T00:43:37;16.90;99.90
24252;DHT22;12380;51.118;4.176;2023-07-31T00:46:02;16.90;99.90
24252;DHT22;12380;51.118;4.176;2023-07-31T00:48:28;17.00;99.90
24252;DHT22;12380;51.118;4.176;2023-07-31T00:50:53;17.00;99.90
24252;DHT22;12380;51.118;4.176;2023-07-31T00:53:19;17.00;99.90
24252;DHT22;12380;51.118;4.176;2023-07-31T00:55:45;17.00;99.90
24252;DHT22;12380;51.118;4.176;2023-07-31T00:58:11;17.00;99.90
24252;DHT22;12380;51.118;4.176;2023-07-31T01:00:36;16.90;99.90
24252;DHT22;12380;51.118;4.176;2023-07-31T01:03:02;16.90;99.90
24252;DHT22;12380;51.118;4.176;2023-07-31T01:05:48;16.90;99.90
24252;DHT22;12380;51.118;4.176;2023-07-31T01:10:48;16.90;99.90
24252;DHT22;12380;51.118;4.176;2023-07-31T01:13:16;17.00;99.90
24252;DHT22;12380;51.118;4.176;2023-07-31T01:15:42;17.00;99.90
24252;DHT22;12380;51.118;4.176;2023-07-31T01:18:07;17.00;99.90
24252;DHT22;12380;51.118;4.176;2023-07-31T01:20:35;17.00;99.90
24252;DHT22;12380;51.118;4.176;2023-07-31T01:26:08;17.10;99.90
24252;DHT22;12380;51.118;4.176;2023-07-31T01:28:33;17.00;99.90
24252;DHT22;12380;51.118;4.176;2023-07-31T01:31:02;17.00;99.90
24252;DHT22;12380;51.118;4.176;2023-07-31T01:33:31;16.90;99.90
24252;DHT22;12380;51.118;4.176;2023-07-31T01:35:59;16.90;99.90
24252;DHT22;12380;51.118;4.176;2023-07-31T01:38:24;16.90;99.90
24252;DHT22;12380;51.118;4.176;2023-07-31T01:40:51;17.00;99.90
24252;DHT22;12380;51.118;4.176;2023-07-31T01:43:16;17.00;99.90
24252;DHT22;12380;51.118;4.176;2023-07-31T01:45:42;17.00;99.90
24252;DHT22;12380;51.118;4.176;2023-07-31T01:48:07;17.10;99.90
24252;DHT22;12380;51.118;4.176;2023-07-31T01:50:33;17.20;99.90
24252;DHT22;12380;51.118;4.176;2023-07-31T01:52:59;17.20;99.90
24252;DHT22;12380;51.118;4.176;2023-07-31T01:55:24;17.00;99.90
24252;DHT22;12380;51.118;4.176;2023-07-31T01:57:53;17.00;99.90
24252;DHT22;12380;51.118;4.176;2023-07-31T02:00:19;17.00;99.90
24252;DHT22;12380;51.118;4.176;2023-07-31T02:02:47;17.10;99.90
24252;DHT22;12380;51.118;4.176;2023-07-31T02:05:13;17.10;99.90
24252;DHT22;12380;51.118;4.176;2023-07-31T02:07:38;17.00;99.90
24252;DHT22;12380;51.118;4.176;2023-07-31T02:10:06;16.90;99.90
24252;DHT22;12380;51.118;4.176;2023-07-31T02:12:34;17.10;99.90
24252;DHT22;12380;51.118;4.176;2023-07-31T02:15:00;17.20;99.90
24252;DHT22;12380;51.118;4.176;2023-07-31T02:17:26;17.30;99.90
24252;DHT22;12380;51.118;4.176;2023-07-31T02:19:51;17.20;99.90
24252;DHT22;12380;51.118;4.176;2023-07-31T02:22:17;17.10;99.90
24252;DHT22;12380;51.118;4.176;2023-07-31T02:24:43;17.00;99.90
24252;DHT22;12380;51.118;4.176;2023-07-31T02:27:08;17.10;99.90
24252;DHT22;12380;51.118;4.176;2023-07-31T02:29:34;17.00;99.90
24252;DHT22;12380;51.118;4.176;2023-07-31T02:31:59;17.00;99.90
24252;DHT22;12380;51.118;4.176;2023-07-31T02:34:25;17.00;99.90
24252;DHT22;12380;51.118;4.176;2023-07-31T02:36:51;17.00;99.90
24252;DHT22;12380;51.118;4.176;2023-07-31T02:39:16;17.10;99.90
24252;DHT22;12380;51.118;4.176;2023-07-31T02:41:42;17.10;99.90
24252;DHT22;12380;51.118;4.176;2023-07-31T02:44:07;17.10;99.90
24252;DHT22;12380;51.118;4.176;2023-07-31T02:46:33;17.10;99.90
24252;DHT22;12380;51.118;4.176;2023-07-31T02:48:58;17.20;99.90
24252;DHT22;12380;51.118;4.176;2023-07-31T02:51:24;17.20;99.90
24252;DHT22;12380;51.118;4.176;2023-07-31T02:53:50;17.20;99.90
24252;DHT22;12380;51.118;4.176;2023-07-31T02:56:15;17.10;99.90
24252;DHT22;12380;51.118;4.176;2023-07-31T02:58:41;17.20;99.90
24252;DHT22;12380;51.118;4.176;2023-07-31T03:01:09;17.10;99.90
24252;DHT22;12380;51.118;4.176;2023-07-31T03:03:35;17.10;99.90
24252;DHT22;12380;51.118;4.176;2023-07-31T03:06:00;17.20;99.90
24252;DHT22;12380;51.118;4.176;2023-07-31T03:08:26;17.10;99.90
24252;DHT22;12380;51.118;4.176;2023-07-31T03:10:51;17.10;99.90
24252;DHT22;12380;51.118;4.176;2023-07-31T03:13:17;17.20;99.90
24252;DHT22;12380;51.118;4.176;2023-07-31T03:15:42;17.20;99.90
24252;DHT22;12380;51.118;4.176;2023-07-31T03:18:08;17.20;99.90
24252;DHT22;12380;51.118;4.176;2023-07-31T03:20:34;17.20;99.90
24252;DHT22;12380;51.118;4.176;2023-07-31T03:22:59;17.20;99.90
24252;DHT22;12380;51.118;4.176;2023-07-31T03:25:25;17.30;99.90
24252;DHT22;12380;51.118;4.176;2023-07-31T03:27:51;17.20;99.90
24252;DHT22;12380;51.118;4.176;2023-07-31T03:30:16;17.20;99.90
24252;DHT22;12380;51.118;4.176;2023-07-31T03:32:42;17.20;99.90
24252;DHT22;12380;51.118;4.176;2023-07-31T03:35:10;17.20;99.90
24252;DHT22;12380;51.118;4.176;2023-07-31T03:37:36;17.30;99.90
24252;DHT22;12380;51.118;4.176;2023-07-31T03:40:01;17.30;99.90
24252;DHT22;12380;51.118;4.176;2023-07-31T03:42:27;17.20;99.90
24252;DHT22;12380;51.118;4.176;2023-07-31T03:44:53;17.30;99.90
24252;DHT22;12380;51.118;4.176;2023-07-31T03:47:18;17.30;99.90
24252;DHT22;12380;51.118;4.176;2023-07-31T03:49:44;17.10;99.90
24252;DHT22;12380;51.118;4.176;2023-07-31T03:52:09;17.10;99.90
24252;DHT22;12380;51.118;4.176;2023-07-31T03:54:37;17.10;99.90
24252;DHT22;12380;51.118;4.176;2023-07-31T03:57:03;17.00;99.90
24252;DHT22;12380;51.118;4.176;2023-07-31T03:59:29;17.00;99.90
24252;DHT22;12380;51.118;4.176;2023-07-31T04:01:54;16.80;99.90
24252;DHT22;12380;51.118;4.176;2023-07-31T04:04:20;16.80;99.90
24252;DHT22;12380;51.118;4.176;2023-07-31T04:06:45;16.70;99.90
24252;DHT22;12380;51.118;4.176;2023-07-31T04:09:11;16.60;99.90
24252;DHT22;12380;51.118;4.176;2023-07-31T04:11:36;16.70;99.90
24252;DHT22;12380;51.118;4.176;2023-07-31T04:14:02;16.70;99.90
24252;DHT22;12380;51.118;4.176;2023-07-31T04:16:28;16.70;99.90
24252;DHT22;12380;51.118;4.176;2023-07-31T04:18:53;16.70;99.90
24252;DHT22;12380;51.118;4.176;2023-07-31T04:21:19;16.70;99.90
24252;DHT22;12380;51.118;4.176;2023-07-31T04:23:46;16.70;99.90
24252;DHT22;12380;51.118;4.176;2023-07-31T04:26:12;16.70;99.90
24252;DHT22;12380;51.118;4.176;2023-07-31T04:28:37;16.60;99.90
24252;DHT22;12380;51.118;4.176;2023-07-31T04:31:03;16.70;99.90
24252;DHT22;12380;51.118;4.176;2023-07-31T04:33:29;16.70;99.90
24252;DHT22;12380;51.118;4.176;2023-07-31T04:35:54;16.70;99.90
24252;DHT22;12380;51.118;4.176;2023-07-31T04:38:20;16.70;99.90
24252;DHT22;12380;51.118;4.176;2023-07-31T04:40:46;16.70;99.90
24252;DHT22;12380;51.118;4.176;2023-07-31T04:43:12;16.70;99.90
24252;DHT22;12380;51.118;4.176;2023-07-31T04:45:37;16.70;99.90
24252;DHT22;12380;51.118;4.176;2023-07-31T04:48:03;16.80;99.90
24252;DHT22;12380;51.118;4.176;2023-07-31T04:50:29;16.70;99.90
24252;DHT22;12380;51.118;4.176;2023-07-31T04:52:56;16.70;99.90
24252;DHT22;12380;51.118;4.176;2023-07-31T04:55:21;16.60;99.90
24252;DHT22;12380;51.118;4.176;2023-07-31T04:57:47;16.60;99.90
24252;DHT22;12380;51.118;4.176;2023-07-31T05:00:12;16.60;99.90
24252;DHT22;12380;51.118;4.176;2023-07-31T05:02:38;16.70;99.90
24252;DHT22;12380;51.118;4.176;2023-07-31T05:05:07;16.60;99.90
24252;DHT22;12380;51.118;4.176;2023-07-31T05:07:32;16.60;99.90
24252;DHT22;12380;51.118;4.176;2023-07-31T05:09:58;16.60;99.90
24252;DHT22;12380;51.118;4.176;2023-07-31T05:12:23;16.70;99.90
24252;DHT22;12380;51.118;4.176;2023-07-31T05:14:51;16.60;99.90
24252;DHT22;12380;51.118;4.176;2023-07-31T05:17:17;16.60;99.90
24252;DHT22;12380;51.118;4.176;2023-07-31T05:19:42;16.60;99.90
24252;DHT22;12380;51.118;4.176;2023-07-31T05:22:08;16.60;99.90
24252;DHT22;12380;51.118;4.176;2023-07-31T05:24:36;16.60;99.90
24252;DHT22;12380;51.118;4.176;2023-07-31T05:27:02;16.60;99.90
24252;DHT22;12380;51.118;4.176;2023-07-31T05:29:27;16.70;99.90
24252;DHT22;12380;51.118;4.176;2023-07-31T05:31:53;16.60;99.90
24252;DHT22;12380;51.118;4.176;2023-07-31T05:34:19;16.60;99.90
24252;DHT22;12380;51.118;4.176;2023-07-31T05:36:46;16.70;99.90
24252;DHT22;12380;51.118;4.176;2023-07-31T05:39:12;16.60;99.90
24252;DHT22;12380;51.118;4.176;2023-07-31T05:41:38;16.70;99.90
24252;DHT22;12380;51.118;4.176;2023-07-31T05:44:03;16.70;99.90
24252;DHT22;12380;51.118;4.176;2023-07-31T05:46:29;16.70;99.90
24252;DHT22;12380;51.118;4.176;2023-07-31T05:48:57;16.70;99.90
24252;DHT22;12380;51.118;4.176;2023-07-31T05:51:22;16.60;99.90
24252;DHT22;12380;51.118;4.176;2023-07-31T05:53:48;16.60;99.90
24252;DHT22;12380;51.118;4.176;2023-07-31T05:56:13;16.60;99.90
24252;DHT22;12380;51.118;4.176;2023-07-31T05:58:39;16.60;99.90
24252;DHT22;12380;51.118;4.176;2023-07-31T06:01:05;16.60;99.90
24252;DHT22;12380;51.118;4.176;2023-07-31T06:03:30;16.60;99.90
24252;DHT22;12380;51.118;4.176;2023-07-31T06:05:56;16.60;99.90
24252;DHT22;12380;51.118;4.176;2023-07-31T06:08:21;16.70;99.90
24252;DHT22;12380;51.118;4.176;2023-07-31T06:10:47;16.70;99.90
24252;DHT22;12380;51.118;4.176;2023-07-31T06:13:12;16.80;99.90
24252;DHT22;12380;51.118;4.176;2023-07-31T06:15:38;16.80;99.90
24252;DHT22;12380;51.118;4.176;2023-07-31T06:18:03;16.70;99.90
24252;DHT22;12380;51.118;4.176;2023-07-31T06:20:33;16.70;99.90
24252;DHT22;12380;51.118;4.176;2023-07-31T06:22:59;16.80;99.90
24252;DHT22;12380;51.118;4.176;2023-07-31T06:25:27;16.90;99.90
24252;DHT22;12380;51.118;4.176;2023-07-31T06:27:53;16.80;99.90
24252;DHT22;12380;51.118;4.176;2023-07-31T06:30:18;16.80;99.90
24252;DHT22;12380;51.118;4.176;2023-07-31T06:32:44;16.70;99.90
24252;DHT22;12380;51.118;4.176;2023-07-31T06:35:09;16.80;99.90
24252;DHT22;12380;51.118;4.176;2023-07-31T06:37:35;16.70;99.90
24252;DHT22;12380;51.118;4.176;2023-07-31T06:40:03;16.70;99.90
24252;DHT22;12380;51.118;4.176;2023-07-31T06:42:30;16.70;99.90
24252;DHT22;12380;51.118;4.176;2023-07-31T06:44:56;16.80;99.90
24252;DHT22;12380;51.118;4.176;2023-07-31T06:47:23;16.80;99.90
24252;DHT22;12380;51.118;4.176;2023-07-31T06:49:48;16.80;99.90
24252;DHT22;12380;51.118;4.176;2023-07-31T06:52:14;16.80;99.90
24252;DHT22;12380;51.118;4.176;2023-07-31T06:54:40;16.90;99.90
24252;DHT22;12380;51.118;4.176;2023-07-31T06:57:05;16.90;99.90
24252;DHT22;12380;51.118;4.176;2023-07-31T06:59:35;16.90;99.90
24252;DHT22;12380;51.118;4.176;2023-07-31T07:02:01;17.00;99.90
24252;DHT22;12380;51.118;4.176;2023-07-31T07:04:27;17.00;99.90
24252;DHT22;12380;51.118;4.176;2023-07-31T07:06:52;17.00;99.90
24252;DHT22;12380;51.118;4.176;2023-07-31T07:09:18;17.00;99.90
24252;DHT22;12380;51.118;4.176;2023-07-31T07:11:43;17.00;99.90
24252;DHT22;12380;51.118;4.176;2023-07-31T07:14:09;17.00;99.90
24252;DHT22;12380;51.118;4.176;2023-07-31T07:16:35;17.10;99.90
24252;DHT22;12380;51.118;4.176;2023-07-31T07:19:06;17.10;99.90
24252;DHT22;12380;51.118;4.176;2023-07-31T07:21:31;17.10;99.90
24252;DHT22;12380;51.118;4.176;2023-07-31T07:23:57;17.10;99.90
24252;DHT22;12380;51.118;4.176;2023-07-31T07:26:23;17.00;99.90
24252;DHT22;12380;51.118;4.176;2023-07-31T07:28:48;17.00;99.90
24252;DHT22;12380;51.118;4.176;2023-07-31T07:31:14;17.10;99.90
24252;DHT22;12380;51.118;4.176;2023-07-31T07:33:42;17.10;99.90
24252;DHT22;12380;51.118;4.176;2023-07-31T07:36:07;17.20;99.90
24252;DHT22;12380;51.118;4.176;2023-07-31T07:38:35;17.20;99.90
24252;DHT22;12380;51.118;4.176;2023-07-31T07:41:00;17.20;99.90
24252;DHT22;12380;51.118;4.176;2023-07-31T07:43:26;17.20;99.90
24252;DHT22;12380;51.118;4.176;2023-07-31T07:45:51;17.20;99.90
24252;DHT22;12380;51.118;4.176;2023-07-31T07:48:17;17.30;99.90
24252;DHT22;12380;51.118;4.176;2023-07-31T07:50:42;17.40;99.90
24252;DHT22;12380;51.118;4.176;2023-07-31T07:53:08;17.40;99.90
24252;DHT22;12380;51.118;4.176;2023-07-31T07:55:35;17.70;99.90
24252;DHT22;12380;51.118;4.176;2023-07-31T07:58:00;17.80;99.90
24252;DHT22;12380;51.118;4.176;2023-07-31T08:00:26;17.80;99.90
24252;DHT22;12380;51.118;4.176;2023-07-31T08:02:52;17.70;99.90
24252;DHT22;12380;51.118;4.176;2023-07-31T08:05:17;17.70;99.90
24252;DHT22;12380;51.118;4.176;2023-07-31T08:07:43;17.50;99.90
24252;DHT22;12380;51.118;4.176;2023-07-31T08:10:08;17.50;99.90
24252;DHT22;12380;51.118;4.176;2023-07-31T08:12:36;17.50;99.90
24252;DHT22;12380;51.118;4.176;2023-07-31T08:15:02;17.40;99.90
24252;DHT22;12380;51.118;4.176;2023-07-31T08:17:27;17.50;99.90
24252;DHT22;12380;51.118;4.176;2023-07-31T08:19:55;17.50;99.90
24252;DHT22;12380;51.118;4.176;2023-07-31T08:22:23;17.70;99.90
24252;DHT22;12380;51.118;4.176;2023-07-31T08:24:51;17.80;99.90
24252;DHT22;12380;51.118;4.176;2023-07-31T08:27:17;17.80;99.90
24252;DHT22;12380;51.118;4.176;2023-07-31T08:29:42;17.80;99.90
24252;DHT22;12380;51.118;4.176;2023-07-31T08:32:08;17.70;99.90
24252;DHT22;12380;51.118;4.176;2023-07-31T08:34:34;17.70;99.90
24252;DHT22;12380;51.118;4.176;2023-07-31T08:36:59;17.80;99.90
24252;DHT22;12380;51.118;4.176;2023-07-31T08:39:25;17.80;99.90
24252;DHT22;12380;51.118;4.176;2023-07-31T08:41:50;17.90;99.90
24252;DHT22;12380;51.118;4.176;2023-07-31T08:44:16;18.00;99.90
24252;DHT22;12380;51.118;4.176;2023-07-31T08:46:43;17.90;99.90
24252;DHT22;12380;51.118;4.176;2023-07-31T08:49:09;18.00;99.90
24252;DHT22;12380;51.118;4.176;2023-07-31T08:51:34;18.00;99.90
24252;DHT22;12380;51.118;4.176;2023-07-31T08:54:01;18.00;99.90
24252;DHT22;12380;51.118;4.176;2023-07-31T08:56:26;18.10;99.90
24252;DHT22;12380;51.118;4.176;2023-07-31T08:58:53;18.00;99.90
24252;DHT22;12380;51.118;4.176;2023-07-31T09:01:19;18.20;99.90
24252;DHT22;12380;51.118;4.176;2023-07-31T09:03:45;18.30;99.90
24252;DHT22;12380;51.118;4.176;2023-07-31T09:06:13;18.60;99.90
24252;DHT22;12380;51.118;4.176;2023-07-31T09:08:41;18.90;99.90
24252;DHT22;12380;51.118;4.176;2023-07-31T09:11:07;19.10;99.90
24252;DHT22;12380;51.118;4.176;2023-07-31T09:13:33;19.10;99.90
24252;DHT22;12380;51.118;4.176;2023-07-31T09:15:58;19.40;99.90
24252;DHT22;12380;51.118;4.176;2023-07-31T09:18:24;19.80;99.90
24252;DHT22;12380;51.118;4.176;2023-07-31T09:21:05;20.10;99.90
24252;DHT22;12380;51.118;4.176;2023-07-31T09:23:43;20.00;99.90
24252;DHT22;12380;51.118;4.176;2023-07-31T09:26:09;20.30;99.90
24252;DHT22;12380;51.118;4.176;2023-07-31T09:28:36;20.00;99.90
24252;DHT22;12380;51.118;4.176;2023-07-31T09:31:02;20.00;99.90
24252;DHT22;12380;51.118;4.176;2023-07-31T09:33:28;19.70;99.90
24252;DHT22;12380;51.118;4.176;2023-07-31T09:35:53;19.60;99.90
24252;DHT22;12380;51.118;4.176;2023-07-31T09:38:19;19.50;99.90
24252;DHT22;12380;51.118;4.176;2023-07-31T09:40:45;19.40;99.90
24252;DHT22;12380;51.118;4.176;2023-07-31T09:43:16;19.40;99.90
24252;DHT22;12380;51.118;4.176;2023-07-31T09:45:43;19.40;99.90
24252;DHT22;12380;51.118;4.176;2023-07-31T09:50:37;19.10;99.90
24252;DHT22;12380;51.118;4.176;2023-07-31T09:53:03;19.10;99.90
24252;DHT22;12380;51.118;4.176;2023-07-31T09:55:29;19.10;99.90
24252;DHT22;12380;51.118;4.176;2023-07-31T09:57:55;19.10;99.90
24252;DHT22;12380;51.118;4.176;2023-07-31T10:00:22;19.10;99.90
24252;DHT22;12380;51.118;4.176;2023-07-31T10:02:50;19.00;99.90
24252;DHT22;12380;51.118;4.176;2023-07-31T10:05:19;18.90;99.90
24252;DHT22;12380;51.118;4.176;2023-07-31T10:07:54;18.70;99.90
24252;DHT22;12380;51.118;4.176;2023-07-31T10:10:23;18.60;99.90
24252;DHT22;12380;51.118;4.176;2023-07-31T10:12:50;18.50;99.90
24252;DHT22;12380;51.118;4.176;2023-07-31T10:15:17;18.40;99.90
24252;DHT22;12380;51.118;4.176;2023-07-31T10:17:48;18.30;99.90
24252;DHT22;12380;51.118;4.176;2023-07-31T10:20:14;18.20;99.90
24252;DHT22;12380;51.118;4.176;2023-07-31T10:22:43;18.20;99.90
24252;DHT22;12380;51.118;4.176;2023-07-31T10:25:09;18.10;99.90
24252;DHT22;12380;51.118;4.176;2023-07-31T10:27:41;18.00;99.90
24252;DHT22;12380;51.118;4.176;2023-07-31T10:30:12;18.10;99.90
24252;DHT22;12380;51.118;4.176;2023-07-31T10:32:38;18.20;99.90
24252;DHT22;12380;51.118;4.176;2023-07-31T10:35:04;18.20;99.90
24252;DHT22;12380;51.118;4.176;2023-07-31T10:37:37;18.20;99.90
24252;DHT22;12380;51.118;4.176;2023-07-31T10:40:04;18.10;99.90
24252;DHT22;12380;51.118;4.176;2023-07-31T10:42:31;18.00;99.90
24252;DHT22;12380;51.118;4.176;2023-07-31T10:45:00;18.10;99.90
24252;DHT22;12380;51.118;4.176;2023-07-31T10:47:26;18.10;99.90
24252;DHT22;12380;51.118;4.176;2023-07-31T10:49:52;18.10;99.90
24252;DHT22;12380;51.118;4.176;2023-07-31T10:52:20;18.10;99.90
24252;DHT22;12380;51.118;4.176;2023-07-31T10:54:49;18.10;99.90
24252;DHT22;12380;51.118;4.176;2023-07-31T10:57:19;18.20;99.90
24252;DHT22;12380;51.118;4.176;2023-07-31T10:59:47;18.20;99.90
24252;DHT22;12380;51.118;4.176;2023-07-31T11:02:26;18.30;99.90
24252;DHT22;12380;51.118;4.176;2023-07-31T11:07:48;18.30;99.90
24252;DHT22;12380;51.118;4.176;2023-07-31T11:10:16;18.20;99.90
24252;DHT22;12380;51.118;4.176;2023-07-31T11:12:42;18.30;99.90
24252;DHT22;12380;51.118;4.176;2023-07-31T11:15:10;18.20;99.90
24252;DHT22;12380;51.118;4.176;2023-07-31T11:17:42;18.30;99.90
24252;DHT22;12380;51.118;4.176;2023-07-31T11:20:08;18.50;99.90
24252;DHT22;12380;51.118;4.176;2023-07-31T11:22:34;18.60;99.90
24252;DHT22;12380;51.118;4.176;2023-07-31T11:25:01;18.50;99.90
24252;DHT22;12380;51.118;4.176;2023-07-31T11:27:27;18.50;99.90
24252;DHT22;12380;51.118;4.176;2023-07-31T11:29:53;18.60;99.90
24252;DHT22;12380;51.118;4.176;2023-07-31T11:32:18;18.50;99.90
24252;DHT22;12380;51.118;4.176;2023-07-31T11:34:51;18.60;99.90
24252;DHT22;12380;51.118;4.176;2023-07-31T11:37:19;18.70;99.90
24252;DHT22;12380;51.118;4.176;2023-07-31T11:39:58;18.70;99.90
24252;DHT22;12380;51.118;4.176;2023-07-31T11:42:23;18.70;99.90
24252;DHT22;12380;51.118;4.176;2023-07-31T11:44:51;18.70;99.90
24252;DHT22;12380;51.118;4.176;2023-07-31T11:47:17;18.70;99.90
24252;DHT22;12380;51.118;4.176;2023-07-31T11:49:45;18.70;99.90
24252;DHT22;12380;51.118;4.176;2023-07-31T11:52:10;18.70;99.90
24252;DHT22;12380;51.118;4.176;2023-07-31T11:54:37;18.80;99.90
24252;DHT22;12380;51.118;4.176;2023-07-31T11:57:03;18.90;99.90
24252;DHT22;12380;51.118;4.176;2023-07-31T11:59:30;18.90;99.90
24252;DHT22;12380;51.118;4.176;2023-07-31T12:01:58;19.10;99.90
24252;DHT22;12380;51.118;4.176;2023-07-31T12:04:23;19.30;99.90
24252;DHT22;12380;51.118;4.176;2023-07-31T12:06:53;19.60;99.90
24252;DHT22;12380;51.118;4.176;2023-07-31T12:09:19;19.80;99.90
24252;DHT22;12380;51.118;4.176;2023-07-31T12:11:46;19.90;99.90
24252;DHT22;12380;51.118;4.176;2023-07-31T12:14:21;20.20;99.90
24252;DHT22;12380;51.118;4.176;2023-07-31T12:16:50;20.50;99.90
24252;DHT22;12380;51.118;4.176;2023-07-31T12:19:18;20.50;99.90
24252;DHT22;12380;51.118;4.176;2023-07-31T12:21:44;20.00;99.90
24252;DHT22;12380;51.118;4.176;2023-07-31T12:24:10;19.80;99.90
24252;DHT22;12380;51.118;4.176;2023-07-31T12:26:35;19.80;99.90
24252;DHT22;12380;51.118;4.176;2023-07-31T12:29:01;19.80;99.90
24252;DHT22;12380;51.118;4.176;2023-07-31T12:31:28;19.70;99.90
24252;DHT22;12380;51.118;4.176;2023-07-31T12:33:54;19.60;99.90
24252;DHT22;12380;51.118;4.176;2023-07-31T12:36:21;19.60;99.90
24252;DHT22;12380;51.118;4.176;2023-07-31T12:38:47;19.60;99.90
24252;DHT22;12380;51.118;4.176;2023-07-31T12:41:15;19.50;99.90
24252;DHT22;12380;51.118;4.176;2023-07-31T12:43:41;19.50;99.90
24252;DHT22;12380;51.118;4.176;2023-07-31T12:46:07;19.40;99.90
24252;DHT22;12380;51.118;4.176;2023-07-31T12:48:33;19.50;99.90
24252;DHT22;12380;51.118;4.176;2023-07-31T12:50:59;19.50;99.90
24252;DHT22;12380;51.118;4.176;2023-07-31T12:53:24;19.70;99.90
24252;DHT22;12380;51.118;4.176;2023-07-31T12:55:50;19.70;99.90
24252;DHT22;12380;51.118;4.176;2023-07-31T12:58:16;19.40;99.90
24252;DHT22;12380;51.118;4.176;2023-07-31T13:00:41;19.30;99.90
24252;DHT22;12380;51.118;4.176;2023-07-31T13:03:07;19.20;99.90
24252;DHT22;12380;51.118;4.176;2023-07-31T13:05:36;18.90;99.90
24252;DHT22;12380;51.118;4.176;2023-07-31T13:08:01;18.80;99.90
24252;DHT22;12380;51.118;4.176;2023-07-31T13:10:29;18.70;99.90
24252;DHT22;12380;51.118;4.176;2023-07-31T13:12:55;18.70;99.90
24252;DHT22;12380;51.118;4.176;2023-07-31T13:15:21;18.70;99.90
24252;DHT22;12380;51.118;4.176;2023-07-31T13:17:49;18.70;99.90
24252;DHT22;12380;51.118;4.176;2023-07-31T13:20:17;18.70;99.90
24252;DHT22;12380;51.118;4.176;2023-07-31T13:22:42;18.60;99.90
24252;DHT22;12380;51.118;4.176;2023-07-31T13:25:08;18.60;99.90
24252;DHT22;12380;51.118;4.176;2023-07-31T13:27:34;18.50;99.90
24252;DHT22;12380;51.118;4.176;2023-07-31T13:30:00;18.60;99.90
24252;DHT22;12380;51.118;4.176;2023-07-31T13:32:25;18.60;99.90
24252;DHT22;12380;51.118;4.176;2023-07-31T13:34:51;18.60;99.90
24252;DHT22;12380;51.118;4.176;2023-07-31T13:37:19;18.50;99.90
24252;DHT22;12380;51.118;4.176;2023-07-31T13:39:45;18.60;99.90
24252;DHT22;12380;51.118;4.176;2023-07-31T13:42:10;18.50;99.90
24252;DHT22;12380;51.118;4.176;2023-07-31T13:44:39;18.50;99.90
24252;DHT22;12380;51.118;4.176;2023-07-31T13:47:05;18.40;99.90
24252;DHT22;12380;51.118;4.176;2023-07-31T13:49:30;18.40;99.90
24252;DHT22;12380;51.118;4.176;2023-07-31T13:51:57;18.20;99.90
24252;DHT22;12380;51.118;4.176;2023-07-31T13:54:22;18.20;99.90
24252;DHT22;12380;51.118;4.176;2023-07-31T13:56:48;18.20;99.90
24252;DHT22;12380;51.118;4.176;2023-07-31T13:59:14;18.20;99.90
24252;DHT22;12380;51.118;4.176;2023-07-31T14:01:41;18.10;99.90
24252;DHT22;12380;51.118;4.176;2023-07-31T14:04:07;18.00;99.90
24252;DHT22;12380;51.118;4.176;2023-07-31T14:06:32;17.90;99.90
24252;DHT22;12380;51.118;4.176;2023-07-31T14:08:58;18.00;99.90
24252;DHT22;12380;51.118;4.176;2023-07-31T14:11:23;18.00;99.90
24252;DHT22;12380;51.118;4.176;2023-07-31T14:13:50;18.00;99.90
24252;DHT22;12380;51.118;4.176;2023-07-31T14:16:20;17.90;99.90
24252;DHT22;12380;51.118;4.176;2023-07-31T14:18:46;17.90;99.90
24252;DHT22;12380;51.118;4.176;2023-07-31T14:21:12;18.00;99.90
24252;DHT22;12380;51.118;4.176;2023-07-31T14:23:37;18.00;99.90
24252;DHT22;12380;51.118;4.176;2023-07-31T14:26:03;17.90;99.90
24252;DHT22;12380;51.118;4.176;2023-07-31T14:28:29;17.90;99.90
24252;DHT22;12380;51.118;4.176;2023-07-31T14:30:55;18.00;99.90
24252;DHT22;12380;51.118;4.176;2023-07-31T14:33:20;17.90;99.90
24252;DHT22;12380;51.118;4.176;2023-07-31T14:35:48;17.90;99.90
24252;DHT22;12380;51.118;4.176;2023-07-31T14:38:14;17.90;99.90
24252;DHT22;12380;51.118;4.176;2023-07-31T14:40:40;17.90;99.90
24252;DHT22;12380;51.118;4.176;2023-07-31T14:43:05;17.90;99.90
24252;DHT22;12380;51.118;4.176;2023-07-31T14:45:31;17.90;99.90
24252;DHT22;12380;51.118;4.176;2023-07-31T14:47:59;17.90;99.90
24252;DHT22;12380;51.118;4.176;2023-07-31T14:50:25;17.90;99.90
24252;DHT22;12380;51.118;4.176;2023-07-31T14:52:50;18.00;99.90
24252;DHT22;12380;51.118;4.176;2023-07-31T14:55:16;18.10;99.90
24252;DHT22;12380;51.118;4.176;2023-07-31T14:57:41;18.10;99.90
24252;DHT22;12380;51.118;4.176;2023-07-31T15:00:07;18.10;99.90
24252;DHT22;12380;51.118;4.176;2023-07-31T15:02:36;18.10;99.90
24252;DHT22;12380;51.118;4.176;2023-07-31T15:05:02;18.10;99.90
24252;DHT22;12380;51.118;4.176;2023-07-31T15:07:28;18.10;99.90
24252;DHT22;12380;51.118;4.176;2023-07-31T15:09:54;18.10;99.90
24252;DHT22;12380;51.118;4.176;2023-07-31T15:12:19;18.00;99.90
24252;DHT22;12380;51.118;4.176;2023-07-31T15:14:45;18.00;99.90
24252;DHT22;12380;51.118;4.176;2023-07-31T15:17:10;17.90;99.90
24252;DHT22;12380;51.118;4.176;2023-07-31T15:19:36;18.00;99.90
24252;DHT22;12380;51.118;4.176;2023-07-31T15:22:05;17.90;99.90
24252;DHT22;12380;51.118;4.176;2023-07-31T15:24:30;18.00;99.90
24252;DHT22;12380;51.118;4.176;2023-07-31T15:26:56;18.00;99.90
24252;DHT22;12380;51.118;4.176;2023-07-31T15:29:22;18.10;99.90
24252;DHT22;12380;51.118;4.176;2023-07-31T15:31:47;18.00;99.90
24252;DHT22;12380;51.118;4.176;2023-07-31T15:34:13;18.00;99.90
24252;DHT22;12380;51.118;4.176;2023-07-31T15:36:39;18.10;99.90